createdAt,value
2017-12-05T00:02:14.509Z,1.90
2017-12-05T00:04:43.657Z,1.90
2017-12-05T00:07:12.074Z,1.90
2017-12-05T00:09:41.233Z,1.90
2017-12-05T00:12:09.600Z,1.90
2017-12-05T00:14:37.979Z,1.80
2017-12-05T00:17:06.361Z,1.80
2017-12-05T00:19:34.743Z,1.80
2017-12-05T00:22:03.122Z,1.80
2017-12-05T00:24:31.517Z,1.80
2017-12-05T00:26:59.884Z,1.80
2017-12-05T00:29:28.262Z,1.80
2017-12-05T00:31:56.668Z,1.80
2017-12-05T00:34:25.050Z,1.80
2017-12-05T00:36:54.300Z,1.80
2017-12-05T00:39:22.688Z,1.80
2017-12-05T00:41:50.733Z,1.80
2017-12-05T00:44:19.114Z,1.80
2017-12-05T00:46:47.350Z,1.80
2017-12-05T00:49:16.500Z,1.80
2017-12-05T00:51:44.959Z,1.80
2017-12-05T00:54:13.345Z,1.90
2017-12-05T00:56:41.731Z,1.90
2017-12-05T00:59:10.106Z,1.90
2017-12-05T01:01:38.491Z,1.80
2017-12-05T01:04:06.875Z,1.70
2017-12-05T01:06:34.915Z,1.70
2017-12-05T01:09:02.976Z,1.70
2017-12-05T01:11:31.362Z,1.60
2017-12-05T01:13:59.742Z,1.60
2017-12-05T01:16:28.132Z,1.60
2017-12-05T01:18:56.514Z,1.60
2017-12-05T01:21:24.934Z,1.60
2017-12-05T01:23:53.354Z,1.60
2017-12-05T01:26:21.733Z,1.60
2017-12-05T01:28:50.118Z,1.70
2017-12-05T01:31:18.507Z,1.70
2017-12-05T01:33:46.897Z,1.70
2017-12-05T01:36:15.281Z,1.70
2017-12-05T01:38:43.665Z,1.70
2017-12-05T01:41:11.385Z,1.80
2017-12-05T01:43:39.433Z,1.80
2017-12-05T01:46:08.596Z,1.90
2017-12-05T01:48:36.983Z,1.90
2017-12-05T01:51:05.348Z,1.80
2017-12-05T01:53:33.554Z,1.90
2017-12-05T01:56:02.576Z,1.90
2017-12-05T01:58:30.434Z,1.80
2017-12-05T02:00:57.978Z,1.80
2017-12-05T02:03:26.795Z,1.70
2017-12-05T02:05:54.505Z,1.80
2017-12-05T02:08:22.041Z,1.70
2017-12-05T02:10:49.901Z,1.70
2017-12-05T02:13:17.631Z,1.70
2017-12-05T02:15:45.836Z,1.70
2017-12-05T02:18:13.366Z,1.70
2017-12-05T02:20:41.080Z,1.70
2017-12-05T02:23:08.798Z,1.70
2017-12-05T02:25:37.192Z,1.70
2017-12-05T02:28:05.574Z,1.70
2017-12-05T02:30:34.728Z,1.70
2017-12-05T02:33:03.132Z,1.70
2017-12-05T02:35:31.522Z,1.70
2017-12-05T02:37:59.921Z,1.80
2017-12-05T02:40:39.581Z,1.80
2017-12-05T02:43:08.741Z,1.70
2017-12-05T02:45:36.797Z,1.70
2017-12-05T02:48:04.519Z,1.80
2017-12-05T02:50:33.014Z,1.80
2017-12-05T02:53:00.739Z,1.80
2017-12-05T02:55:28.470Z,1.80
2017-12-05T02:57:56.520Z,1.70
2017-12-05T03:00:24.242Z,1.80
2017-12-05T03:02:52.285Z,1.70
2017-12-05T03:05:20.337Z,1.70
2017-12-05T03:07:48.393Z,1.70
2017-12-05T03:10:16.105Z,1.70
2017-12-05T03:12:43.829Z,1.70
2017-12-05T03:15:12.272Z,1.80
2017-12-05T03:17:41.609Z,1.80
2017-12-05T03:20:09.674Z,1.80
2017-12-05T03:22:38.054Z,1.80
2017-12-05T03:25:06.443Z,1.80
2017-12-05T03:27:34.846Z,1.80
2017-12-05T03:30:03.216Z,1.90
2017-12-05T03:32:31.606Z,1.90
2017-12-05T03:35:11.298Z,1.90
2017-12-05T03:37:40.135Z,1.90
2017-12-05T03:40:08.690Z,1.90
2017-12-05T03:42:37.077Z,1.90
2017-12-05T03:45:05.461Z,1.90
2017-12-05T03:47:33.834Z,1.90
2017-12-05T03:50:02.045Z,1.90
2017-12-05T03:52:31.001Z,2.00
2017-12-05T03:54:59.383Z,1.90
2017-12-05T03:57:27.777Z,2.00
2017-12-05T03:59:56.165Z,2.00
2017-12-05T04:02:24.536Z,2.00
2017-12-05T04:04:55.353Z,2.00
2017-12-05T04:07:23.797Z,2.00
2017-12-05T04:09:52.183Z,2.00
2017-12-05T04:12:20.564Z,2.00
2017-12-05T04:14:49.237Z,2.00
2017-12-05T04:17:17.610Z,2.00
2017-12-05T04:19:46.002Z,2.00
2017-12-05T04:22:14.386Z,2.00
2017-12-05T04:24:42.763Z,2.00
2017-12-05T04:27:11.158Z,1.90
2017-12-05T04:29:39.542Z,1.90
2017-12-05T04:32:08.566Z,1.90
2017-12-05T04:34:37.948Z,1.90
2017-12-05T04:37:06.482Z,1.90
2017-12-05T04:39:34.866Z,1.90
2017-12-05T04:42:03.269Z,1.90
2017-12-05T04:44:31.655Z,1.90
2017-12-05T04:47:00.073Z,1.90
2017-12-05T04:49:29.217Z,1.90
2017-12-05T04:51:57.257Z,1.90
2017-12-05T04:54:25.825Z,1.90
2017-12-05T04:56:53.915Z,1.90
2017-12-05T04:59:22.301Z,1.90
2017-12-05T05:01:49.828Z,2.00
2017-12-05T05:04:18.031Z,2.00
2017-12-05T05:06:46.219Z,2.00
2017-12-05T05:09:15.600Z,2.00
2017-12-05T05:11:43.807Z,2.00
2017-12-05T05:14:12.188Z,2.00
2017-12-05T05:16:40.382Z,2.00
2017-12-05T05:19:09.344Z,2.00
2017-12-05T05:21:37.533Z,2.00
2017-12-05T05:24:05.922Z,2.00
2017-12-05T05:26:34.129Z,2.00
2017-12-05T05:29:02.333Z,2.10
2017-12-05T05:31:30.710Z,2.00
2017-12-05T05:33:59.121Z,2.10
2017-12-05T05:36:27.553Z,2.10
2017-12-05T05:38:55.928Z,2.10
2017-12-05T05:41:24.135Z,2.10
2017-12-05T05:43:52.515Z,2.10
2017-12-05T05:46:20.708Z,2.10
2017-12-05T05:48:49.818Z,2.10
2017-12-05T05:51:18.774Z,2.10
2017-12-05T05:53:47.153Z,2.10
2017-12-05T05:56:15.540Z,2.10
2017-12-05T05:58:43.922Z,2.10
2017-12-05T06:01:13.646Z,2.10
2017-12-05T06:03:42.848Z,2.10
2017-12-05T06:06:11.242Z,2.10
2017-12-05T06:08:39.622Z,2.10
2017-12-05T06:11:08.022Z,2.10
2017-12-05T06:13:36.413Z,2.10
2017-12-05T06:16:04.869Z,2.20
2017-12-05T06:18:33.261Z,2.20
2017-12-05T06:21:01.629Z,2.20
2017-12-05T06:23:30.007Z,2.20
2017-12-05T06:25:58.387Z,2.20
2017-12-05T06:28:27.024Z,2.20
2017-12-05T06:30:55.692Z,2.20
2017-12-05T06:33:24.367Z,2.20
2017-12-05T06:35:53.321Z,2.20
2017-12-05T06:38:21.907Z,2.20
2017-12-05T06:40:51.139Z,2.20
2017-12-05T06:43:19.526Z,2.20
2017-12-05T06:45:47.904Z,2.20
2017-12-05T06:48:16.458Z,2.30
2017-12-05T06:50:44.322Z,2.30
2017-12-05T06:53:12.236Z,2.40
2017-12-05T06:55:40.154Z,2.30
2017-12-05T06:58:07.897Z,2.30
2017-12-05T07:00:35.614Z,2.30
2017-12-05T07:03:04.009Z,2.30
2017-12-05T07:05:32.837Z,2.40
2017-12-05T07:08:01.075Z,2.30
2017-12-05T07:10:29.247Z,2.40
2017-12-05T07:12:57.696Z,2.40
2017-12-05T07:15:25.434Z,2.30
2017-12-05T07:17:54.084Z,2.30
2017-12-05T07:20:22.398Z,2.30
2017-12-05T07:22:50.398Z,2.40
2017-12-05T07:25:18.689Z,2.30
2017-12-05T07:27:46.685Z,2.30
2017-12-05T07:30:15.501Z,2.40
2017-12-05T07:32:43.533Z,2.40
2017-12-05T07:35:11.253Z,2.40
2017-12-05T07:37:38.968Z,2.50
2017-12-05T07:40:07.158Z,2.50
2017-12-05T07:42:35.229Z,2.50
2017-12-05T07:45:03.983Z,2.50
2017-12-05T07:47:32.806Z,2.50
2017-12-05T07:50:00.810Z,2.50
2017-12-05T07:52:28.720Z,2.60
2017-12-05T07:54:57.058Z,2.70
2017-12-05T07:57:25.196Z,2.70
2017-12-05T07:59:53.064Z,2.80
2017-12-05T08:02:21.811Z,2.90
2017-12-05T08:04:50.557Z,3.00
2017-12-05T08:07:19.211Z,3.00
2017-12-05T08:09:47.982Z,3.10
2017-12-05T08:12:17.194Z,3.10
2017-12-05T08:14:46.278Z,3.20
2017-12-05T08:17:14.910Z,3.20
2017-12-05T08:19:42.445Z,3.20
2017-12-05T08:22:10.255Z,3.20
2017-12-05T08:24:38.767Z,3.10
2017-12-05T08:27:06.821Z,3.10
2017-12-05T08:29:35.196Z,3.10
2017-12-05T08:32:03.002Z,3.20
2017-12-05T08:34:30.723Z,3.20
2017-12-05T08:36:59.083Z,3.50
2017-12-05T08:39:27.212Z,3.80
2017-12-05T08:41:54.929Z,3.90
2017-12-05T08:44:23.736Z,4.40
2017-12-05T08:46:52.242Z,4.40
2017-12-05T08:49:20.457Z,4.30
2017-12-05T08:51:48.586Z,4.20
2017-12-05T08:54:16.656Z,4.10
2017-12-05T08:56:44.875Z,4.20
2017-12-05T08:59:13.683Z,4.20
2017-12-05T09:01:41.796Z,4.20
2017-12-05T09:04:09.779Z,4.20
2017-12-05T09:06:38.227Z,4.10
2017-12-05T09:09:06.811Z,4.00
2017-12-05T09:11:35.787Z,4.00
2017-12-05T09:14:04.035Z,4.00
2017-12-05T09:16:32.007Z,4.00
2017-12-05T09:18:59.994Z,4.10
2017-12-05T09:21:28.274Z,4.20
2017-12-05T09:23:56.946Z,4.20
2017-12-05T09:26:25.046Z,4.20
2017-12-05T09:28:53.429Z,4.30
2017-12-05T09:31:21.155Z,4.30
2017-12-05T09:33:49.243Z,4.30
2017-12-05T09:36:17.279Z,4.20
2017-12-05T09:38:45.283Z,4.10
2017-12-05T09:41:13.864Z,4.20
2017-12-05T09:43:41.618Z,4.20
2017-12-05T09:46:10.399Z,4.20
2017-12-05T09:48:38.378Z,4.20
2017-12-05T09:51:06.834Z,4.40
2017-12-05T09:53:35.324Z,4.40
2017-12-05T09:56:03.798Z,4.60
2017-12-05T09:58:32.274Z,4.70
2017-12-05T10:01:00.167Z,4.70
2017-12-05T10:03:28.929Z,4.60
2017-12-05T10:05:56.681Z,4.60
2017-12-05T10:08:25.178Z,4.40
2017-12-05T10:10:53.657Z,4.50
2017-12-05T10:13:21.651Z,4.50
2017-12-05T10:15:49.513Z,4.40
2017-12-05T10:18:17.558Z,4.40
2017-12-05T10:20:46.034Z,4.30
2017-12-05T10:23:14.536Z,4.30
2017-12-05T10:25:43.194Z,4.40
2017-12-05T10:28:10.955Z,4.40
2017-12-05T10:30:39.816Z,4.30
2017-12-05T10:33:08.388Z,4.30
2017-12-05T10:35:36.702Z,4.30
2017-12-05T10:38:05.190Z,4.50
2017-12-05T10:40:33.423Z,4.50
2017-12-05T10:43:01.133Z,4.70
2017-12-05T10:45:29.773Z,5.00
2017-12-05T10:47:57.827Z,5.00
2017-12-05T10:50:25.780Z,5.10
2017-12-05T10:52:53.508Z,5.20
2017-12-05T10:55:22.614Z,5.30
2017-12-05T10:57:52.008Z,5.40
2017-12-05T11:00:19.834Z,5.40
2017-12-05T11:02:48.214Z,5.60
2017-12-05T11:05:16.238Z,5.40
2017-12-05T11:07:44.890Z,5.40
2017-12-05T11:10:13.266Z,5.40
2017-12-05T11:12:41.308Z,5.40
2017-12-05T11:15:12.258Z,5.30
2017-12-05T11:17:39.870Z,5.30
2017-12-05T11:20:08.125Z,5.30
2017-12-05T11:22:37.280Z,5.40
2017-12-05T11:25:04.884Z,5.40
2017-12-05T11:27:33.713Z,5.60
2017-12-05T11:30:02.373Z,5.70
2017-12-05T11:32:31.035Z,5.50
2017-12-05T11:34:59.857Z,5.40
2017-12-05T11:37:28.253Z,5.30
2017-12-05T11:39:55.973Z,5.30
2017-12-05T11:42:25.065Z,5.60
2017-12-05T11:44:53.720Z,5.60
2017-12-05T11:47:21.705Z,5.80
2017-12-05T11:49:50.159Z,5.90
2017-12-05T11:52:18.232Z,6.10
2017-12-05T11:54:46.273Z,5.80
2017-12-05T11:57:14.942Z,5.90
2017-12-05T11:59:43.324Z,5.90
2017-12-05T12:02:11.929Z,5.80
2017-12-05T12:04:40.526Z,5.70
2017-12-05T12:07:08.261Z,5.80
2017-12-05T12:09:36.633Z,6.00
2017-12-05T12:12:06.662Z,6.20
2017-12-05T12:14:35.772Z,6.20
2017-12-05T12:17:04.322Z,6.10
2017-12-05T12:19:32.709Z,6.00
2017-12-05T12:22:01.152Z,5.90
2017-12-05T12:24:29.679Z,5.90
2017-12-05T12:26:58.154Z,5.80
2017-12-05T12:29:26.565Z,5.90
2017-12-05T12:31:54.955Z,6.00
2017-12-05T12:34:23.315Z,6.00
2017-12-05T12:36:51.693Z,5.90
2017-12-05T12:39:19.950Z,5.80
2017-12-05T12:41:48.488Z,5.50
2017-12-05T12:44:17.104Z,5.50
2017-12-05T12:46:45.586Z,5.40
2017-12-05T12:49:14.247Z,5.40
2017-12-05T12:51:42.900Z,5.50
2017-12-05T12:54:11.548Z,5.60
2017-12-05T12:56:39.927Z,5.50
2017-12-05T12:59:09.255Z,5.50
2017-12-05T13:01:37.890Z,5.50
2017-12-05T13:04:06.096Z,5.70
2017-12-05T13:06:34.742Z,5.60
2017-12-05T13:09:03.298Z,5.40
2017-12-05T13:11:32.434Z,5.30
2017-12-05T13:14:01.865Z,5.20
2017-12-05T13:16:30.244Z,5.20
2017-12-05T13:18:59.209Z,5.20
2017-12-05T13:21:28.638Z,5.00
2017-12-05T13:23:57.318Z,5.00
2017-12-05T13:26:26.713Z,5.00
2017-12-05T13:28:55.380Z,5.00
2017-12-05T13:31:23.943Z,5.10
2017-12-05T13:33:52.859Z,5.00
2017-12-05T13:36:22.601Z,5.10
2017-12-05T13:38:51.469Z,5.10
2017-12-05T13:41:20.145Z,5.00
2017-12-05T13:43:48.525Z,5.00
2017-12-05T13:46:17.169Z,5.10
2017-12-05T13:48:45.532Z,5.00
2017-12-05T13:51:14.237Z,5.00
2017-12-05T13:53:42.637Z,4.90
2017-12-05T13:56:11.040Z,4.80
2017-12-05T13:58:39.686Z,4.80
2017-12-05T14:01:08.786Z,4.80
2017-12-05T14:03:37.671Z,4.80
2017-12-05T14:06:05.833Z,4.80
2017-12-05T14:08:34.330Z,4.80
2017-12-05T14:11:04.294Z,4.70
2017-12-05T14:13:32.362Z,4.70
2017-12-05T14:16:00.734Z,4.70
2017-12-05T14:18:28.938Z,4.60
2017-12-05T14:20:58.394Z,4.50
2017-12-05T14:23:27.292Z,4.50
2017-12-05T14:25:55.113Z,4.50
2017-12-05T14:28:23.171Z,4.40
2017-12-05T14:30:51.821Z,4.50
2017-12-05T14:33:20.437Z,4.50
2017-12-05T14:35:49.274Z,4.40
2017-12-05T14:38:17.647Z,4.40
2017-12-05T14:40:45.833Z,4.40
2017-12-05T14:43:14.031Z,4.40
2017-12-05T14:45:42.484Z,4.40
2017-12-05T14:48:10.863Z,4.40
2017-12-05T14:50:39.270Z,4.40
2017-12-05T14:53:07.262Z,4.40
2017-12-05T14:55:35.094Z,4.30
2017-12-05T14:58:02.821Z,4.30
2017-12-05T15:00:30.540Z,4.20
2017-12-05T15:02:58.928Z,4.20
2017-12-05T15:05:26.517Z,4.20
2017-12-05T15:07:54.885Z,4.10
2017-12-05T15:10:23.561Z,4.10
2017-12-05T15:12:51.739Z,4.10
2017-12-05T15:15:20.109Z,4.00
2017-12-05T15:17:48.142Z,4.00
2017-12-05T15:20:16.998Z,3.90
2017-12-05T15:22:45.402Z,3.80
2017-12-05T15:25:13.938Z,3.80
2017-12-05T15:27:42.330Z,3.70
2017-12-05T15:30:14.481Z,3.60
2017-12-05T15:32:43.481Z,3.70
2017-12-05T15:35:11.515Z,3.70
2017-12-05T15:37:39.238Z,3.60
2017-12-05T15:40:07.443Z,3.70
2017-12-05T15:42:36.535Z,3.40
2017-12-05T15:45:05.796Z,3.70
2017-12-05T15:47:33.838Z,3.60
2017-12-05T15:50:02.922Z,3.70
2017-12-05T15:52:32.562Z,3.70
2017-12-05T15:55:01.401Z,3.70
2017-12-05T15:57:30.534Z,3.70
2017-12-05T15:59:58.914Z,3.70
2017-12-05T16:02:28.652Z,3.70
2017-12-05T16:04:57.234Z,3.70
2017-12-05T16:07:25.282Z,3.80
2017-12-05T16:09:53.632Z,3.80
2017-12-05T16:12:21.950Z,3.80
2017-12-05T16:14:50.003Z,3.70
2017-12-05T16:17:18.005Z,3.80
2017-12-05T16:19:46.387Z,3.80
2017-12-05T16:22:14.702Z,3.90
2017-12-05T16:24:43.133Z,3.80
2017-12-05T16:27:11.255Z,3.80
2017-12-05T16:29:40.011Z,3.80
2017-12-05T16:32:08.351Z,3.80
2017-12-05T16:34:36.911Z,3.80
2017-12-05T16:37:05.350Z,3.80
2017-12-05T16:39:34.019Z,3.80
2017-12-05T16:42:02.074Z,3.80
2017-12-05T16:44:30.125Z,3.90
2017-12-05T16:46:59.550Z,3.90
2017-12-05T16:49:28.174Z,3.80
2017-12-05T16:51:57.074Z,3.80
2017-12-05T16:54:25.465Z,3.80
2017-12-05T16:56:54.569Z,3.70
2017-12-05T16:59:23.193Z,3.70
2017-12-05T17:01:51.057Z,3.70
2017-12-05T17:04:18.761Z,3.80
2017-12-05T17:06:46.945Z,3.80
2017-12-05T17:09:16.085Z,3.80
2017-12-05T17:11:43.803Z,3.80
2017-12-05T17:14:12.514Z,3.70
2017-12-05T17:19:22.497Z,3.70
2017-12-05T17:21:50.216Z,3.70
2017-12-05T17:24:18.253Z,3.80
2017-12-05T17:26:46.486Z,3.70
2017-12-05T17:29:15.080Z,3.70
2017-12-05T17:31:43.536Z,3.70
2017-12-05T17:34:11.674Z,3.70
2017-12-05T17:36:39.633Z,3.60
2017-12-05T17:39:09.027Z,3.60
2017-12-05T17:41:38.214Z,3.50
2017-12-05T17:44:07.029Z,3.50
2017-12-05T17:46:35.485Z,3.50
2017-12-05T17:49:04.301Z,3.50
2017-12-05T17:51:32.923Z,3.60
2017-12-05T17:54:01.779Z,3.50
2017-12-05T17:56:31.427Z,3.50
2017-12-05T17:59:00.081Z,3.50
2017-12-05T18:01:28.755Z,3.60
2017-12-05T18:03:57.847Z,3.50
2017-12-05T18:06:27.219Z,3.50
2017-12-05T18:08:55.224Z,3.50
2017-12-05T18:11:23.324Z,3.50
2017-12-05T18:13:52.471Z,3.50
2017-12-05T18:16:20.455Z,3.50
2017-12-05T18:18:48.942Z,3.50
2017-12-05T18:21:18.006Z,3.50
2017-12-05T18:23:45.846Z,3.50
2017-12-05T18:26:13.841Z,3.50
2017-12-05T18:28:42.023Z,3.50
2017-12-05T18:31:10.342Z,3.50
2017-12-05T18:33:38.085Z,3.50
2017-12-05T18:36:06.937Z,3.50
2017-12-05T18:38:35.751Z,3.50
2017-12-05T18:41:04.841Z,3.50
2017-12-05T18:43:33.950Z,3.50
2017-12-05T18:46:01.992Z,3.50
2017-12-05T18:48:30.816Z,3.50
2017-12-05T18:50:58.551Z,3.50
2017-12-05T18:53:27.621Z,3.40
2017-12-05T18:55:55.604Z,3.40
2017-12-05T18:58:23.594Z,3.40
2017-12-05T19:00:51.314Z,3.40
2017-12-05T19:03:19.306Z,3.30
2017-12-05T19:05:47.338Z,3.30
2017-12-05T19:08:15.050Z,3.40
2017-12-05T19:10:42.770Z,3.40
2017-12-05T19:13:10.481Z,3.40
2017-12-05T19:15:39.264Z,3.30
2017-12-05T19:18:08.031Z,3.40
2017-12-05T19:20:36.735Z,3.30
2017-12-05T19:23:05.303Z,3.40
2017-12-05T19:25:33.829Z,3.40
2017-12-05T19:28:01.823Z,3.40
2017-12-05T19:30:29.777Z,3.40
2017-12-05T19:32:57.492Z,3.30
2017-12-05T19:35:25.508Z,3.20
2017-12-05T19:37:53.512Z,3.20
2017-12-05T19:40:22.550Z,3.10
2017-12-05T19:42:50.537Z,3.10
2017-12-05T19:45:18.572Z,3.10
2017-12-05T19:47:46.305Z,3.10
2017-12-05T19:50:14.305Z,3.00
2017-12-05T19:52:42.023Z,3.00
2017-12-05T19:55:09.741Z,3.00
2017-12-05T19:57:37.763Z,3.00
2017-12-05T20:00:05.473Z,2.90
2017-12-05T20:02:33.557Z,2.90
2017-12-05T20:05:01.690Z,2.90
2017-12-05T20:07:29.442Z,2.80
2017-12-05T20:09:58.078Z,2.80
2017-12-05T20:12:26.254Z,2.80
2017-12-05T20:14:54.465Z,2.70
2017-12-05T20:17:23.089Z,2.70
2017-12-05T20:19:50.630Z,2.70
2017-12-05T20:22:18.169Z,2.70
2017-12-05T20:24:46.041Z,2.70
2017-12-05T20:27:14.529Z,2.70
2017-12-05T20:29:42.579Z,2.70
2017-12-05T20:32:10.578Z,2.70
2017-12-05T20:34:39.332Z,2.70
2017-12-05T20:37:07.504Z,2.70
2017-12-05T20:39:35.997Z,2.60
2017-12-05T20:42:04.480Z,2.60
2017-12-05T20:44:32.282Z,2.60
2017-12-05T20:47:00.137Z,2.60
2017-12-05T20:49:28.110Z,2.60
2017-12-05T20:51:55.876Z,2.60
2017-12-05T20:54:24.281Z,2.60
2017-12-05T20:56:53.561Z,2.60
2017-12-05T20:59:22.223Z,2.60
2017-12-05T21:01:51.641Z,2.60
2017-12-05T21:04:20.029Z,2.60
2017-12-05T21:06:48.135Z,2.50
2017-12-05T21:09:17.003Z,2.50
2017-12-05T21:11:45.671Z,2.60
2017-12-05T21:14:14.337Z,2.60
2017-12-05T21:16:43.769Z,2.60
2017-12-05T21:19:12.145Z,2.60
2017-12-05T21:21:41.635Z,2.50
2017-12-05T21:24:10.029Z,2.50
2017-12-05T21:26:38.849Z,2.50
2017-12-05T21:29:08.323Z,2.50
2017-12-05T21:31:36.715Z,2.40
2017-12-05T21:34:05.419Z,2.40
2017-12-05T21:36:34.005Z,2.40
2017-12-05T21:39:02.476Z,2.40
2017-12-05T21:41:31.626Z,2.40
2017-12-05T21:44:00.272Z,2.40
2017-12-05T21:46:29.528Z,2.40
2017-12-05T21:48:57.970Z,2.40
2017-12-05T21:51:26.666Z,2.40
2017-12-05T21:53:55.326Z,2.40
2017-12-05T21:56:24.020Z,2.40
2017-12-05T21:58:52.674Z,2.40
2017-12-05T22:01:21.858Z,2.40
2017-12-05T22:03:50.238Z,2.40
2017-12-05T22:06:18.633Z,2.50
2017-12-05T22:08:47.822Z,2.50
2017-12-05T22:11:16.962Z,2.50
2017-12-05T22:13:45.332Z,2.50
2017-12-05T22:16:13.726Z,2.50
2017-12-05T22:18:42.101Z,2.40
2017-12-05T22:21:10.301Z,2.40
2017-12-05T22:23:38.685Z,2.40
2017-12-05T22:26:06.739Z,2.50
2017-12-05T22:28:35.109Z,2.50
2017-12-05T22:31:03.500Z,2.40
2017-12-05T22:33:31.868Z,2.40
2017-12-05T22:36:00.244Z,2.40
2017-12-05T22:38:28.630Z,2.40
2017-12-05T22:40:57.004Z,2.40
2017-12-05T22:43:25.386Z,2.40
2017-12-05T22:45:53.772Z,2.40
2017-12-05T22:48:22.146Z,2.30
2017-12-05T22:50:50.514Z,2.30
2017-12-05T22:53:18.924Z,2.30
2017-12-05T22:55:47.304Z,2.30
2017-12-05T22:58:15.682Z,2.30
2017-12-05T23:00:44.839Z,2.30
2017-12-05T23:03:13.231Z,2.20
2017-12-05T23:05:41.607Z,2.20
2017-12-05T23:08:09.985Z,2.20
2017-12-05T23:10:38.359Z,2.20
2017-12-05T23:13:06.731Z,2.20
2017-12-05T23:15:35.117Z,2.30
2017-12-05T23:18:03.513Z,2.30
2017-12-05T23:20:32.063Z,2.30
2017-12-05T23:23:00.498Z,2.30
2017-12-05T23:25:29.744Z,2.30
2017-12-05T23:27:58.122Z,2.30
2017-12-05T23:30:26.518Z,2.30
2017-12-05T23:32:54.899Z,2.20
2017-12-05T23:35:23.282Z,2.30
2017-12-05T23:37:51.669Z,2.30
2017-12-05T23:40:20.821Z,2.20
2017-12-05T23:42:49.212Z,2.30
2017-12-05T23:45:17.589Z,2.30
2017-12-05T23:47:45.970Z,2.30
2017-12-05T23:50:14.345Z,2.30
2017-12-05T23:52:42.729Z,2.30
2017-12-05T23:55:11.118Z,2.30
2017-12-05T23:57:39.513Z,2.30
